Time;durP1;ratioP1;P1;durP2;ratioP2;P2;SDS_P1;SDS_P2;PMS_P1;PMS_P2;Temp;Humidity;BMP_temperature;BMP_pressure;BME280_temperature;BME280_humidity;BME280_pressure;Samples;Min_cycle;Max_cycle;Signal;HPM_P1;HPM_P2
2021/04/01 00:01:19;;;;;;;19.30;14.03;;;14.80;62.20;;;;;;4984446;28;20203;-80
2021/04/01 00:03:45;;;;;;;24.98;15.50;;;14.70;62.20;;;;;;4983141;28;20663;-80
2021/04/01 00:06:12;;;;;;;24.50;14.80;;;14.70;62.40;;;;;;4967229;28;20203;-80
2021/04/01 00:08:39;;;;;;;20.42;13.73;;;14.70;62.70;;;;;;4983432;28;20259;-82
2021/04/01 00:11:05;;;;;;;28.15;15.07;;;14.70;62.70;;;;;;4983031;28;20195;-76
2021/04/01 00:13:31;;;;;;;27.05;15.48;;;14.60;62.90;;;;;;4984619;28;20250;-80
2021/04/01 00:15:58;;;;;;;26.60;16.30;;;14.60;63.10;;;;;;4983457;28;20208;-80
2021/04/01 00:18:24;;;;;;;20.80;14.50;;;14.60;63.30;;;;;;4984727;28;20659;-80
2021/04/01 00:20:50;;;;;;;27.10;13.03;;;14.70;63.60;;;;;;4983919;28;20203;-80
2021/04/01 00:23:15;;;;;;;27.00;14.50;;;14.70;63.70;;;;;;4983468;28;20432;-80
2021/04/01 00:25:41;;;;;;;24.87;14.93;;;14.60;63.80;;;;;;4982667;28;20613;-81
2021/04/01 00:28:07;;;;;;;23.37;13.77;;;14.50;63.70;;;;;;4984093;28;20179;-80
2021/04/01 00:30:32;;;;;;;27.23;14.60;;;14.60;64.30;;;;;;4983489;28;20638;-80
2021/04/01 00:32:58;;;;;;;23.30;13.13;;;14.50;65.40;;;;;;4983896;28;20184;-80
2021/04/01 00:35:23;;;;;;;23.80;14.83;;;14.50;64.60;;;;;;4983147;28;20198;-80
2021/04/01 00:37:49;;;;;;;20.27;13.17;;;14.50;65.00;;;;;;4965836;28;20187;-81
2021/04/01 00:40:15;;;;;;;38.23;14.70;;;14.50;64.90;;;;;;4981392;28;20218;-80
2021/04/01 00:42:41;;;;;;;29.25;14.18;;;14.50;65.00;;;;;;4965103;28;20190;-81
2021/04/01 00:45:09;;;;;;;23.30;14.30;;;14.50;65.00;;;;;;4982093;28;20175;-80
2021/04/01 00:47:37;;;;;;;24.83;13.80;;;14.50;65.60;;;;;;4980537;28;20169;-81
2021/04/01 00:50:06;;;;;;;24.42;14.15;;;14.40;65.80;;;;;;4993274;28;20180;-79
2021/04/01 00:52:34;;;;;;;21.63;12.80;;;14.50;66.10;;;;;;4988254;28;20176;-80
2021/04/01 00:55:03;;;;;;;22.25;13.75;;;14.40;65.90;;;;;;4982340;28;20182;-81
2021/04/01 00:57:29;;;;;;;23.73;13.25;;;14.40;66.00;;;;;;4983530;28;20234;-79
2021/04/01 00:59:57;;;;;;;16.55;11.65;;;14.40;65.70;;;;;;4983936;28;20210;-80
2021/04/01 01:02:23;;;;;;;23.02;13.60;;;14.40;65.70;;;;;;4982737;28;20159;-82
2021/04/01 01:04:48;;;;;;;20.87;12.80;;;14.40;65.80;;;;;;4978978;28;20176;-80
2021/04/01 01:07:14;;;;;;;20.40;12.63;;;14.40;65.60;;;;;;4979977;28;20172;-80
2021/04/01 01:09:40;;;;;;;16.63;12.00;;;14.40;66.00;;;;;;4979823;28;20230;-81
2021/04/01 01:12:06;;;;;;;22.47;11.63;;;14.40;65.90;;;;;;4979436;28;20192;-80
2021/04/01 01:14:33;;;;;;;24.27;12.50;;;14.30;65.70;;;;;;4980475;28;20181;-79
2021/04/01 01:16:58;;;;;;;21.13;12.30;;;14.30;65.80;;;;;;4980321;28;20635;-81
2021/04/01 01:19:29;;;;;;;19.77;11.23;;;14.30;65.80;;;;;;4979838;28;20250;-80
2021/04/01 01:21:55;;;;;;;19.92;11.68;;;14.40;66.00;;;;;;4962489;28;20217;-79
2021/04/01 01:24:20;;;;;;;20.00;11.57;;;14.30;65.70;;;;;;4979936;28;20177;-80
2021/04/01 01:26:46;;;;;;;17.80;11.10;;;14.30;66.10;;;;;;4978525;28;20199;-80
2021/04/01 01:29:12;;;;;;;39.78;10.75;;;14.30;66.40;;;;;;4977799;28;20599;-79
2021/04/01 01:31:49;;;;;;;17.80;11.13;;;14.30;66.30;;;;;;4977040;28;20176;-80
2021/04/01 01:34:15;;;;;;;21.98;11.90;;;14.30;66.10;;;;;;4976279;28;20167;-78
2021/04/01 01:36:41;;;;;;;18.15;10.85;;;14.30;66.20;;;;;;4976411;28;20175;-78
2021/04/01 01:39:06;;;;;;;19.67;10.80;;;14.20;66.20;;;;;;4974719;28;20218;-78
2021/04/01 01:41:32;;;;;;;16.07;10.70;;;14.20;66.20;;;;;;4976174;28;20524;-80
2021/04/01 01:43:58;;;;;;;20.07;10.17;;;14.20;66.30;;;;;;4979687;28;20181;-78
2021/04/01 01:46:23;;;;;;;23.57;9.80;;;14.20;66.40;;;;;;4993902;28;20483;-79
2021/04/01 01:48:49;;;;;;;14.97;9.20;;;14.20;66.30;;;;;;4981639;28;20672;-79
2021/04/01 01:51:15;;;;;;;18.37;10.60;;;14.20;66.30;;;;;;4979231;28;20183;-79
2021/04/01 01:53:40;;;;;;;21.00;8.90;;;14.20;66.60;;;;;;4979898;28;20187;-80
2021/04/01 01:56:06;;;;;;;13.93;9.77;;;14.20;66.70;;;;;;4977860;28;20195;-79
2021/04/01 01:58:32;;;;;;;18.77;9.83;;;14.20;66.20;;;;;;4978322;28;20195;-79
2021/04/01 02:00:59;;;;;;;12.75;9.40;;;14.20;66.40;;;;;;4976247;28;20176;-79
2021/04/01 02:03:25;;;;;;;14.60;10.30;;;14.30;66.30;;;;;;4974570;28;20258;-80
2021/04/01 02:05:51;;;;;;;18.30;10.18;;;14.30;66.10;;;;;;4974067;28;20172;-80
2021/04/01 02:08:17;;;;;;;12.05;7.75;;;14.30;66.30;;;;;;4973906;28;20175;-79
2021/04/01 02:10:49;;;;;;;14.03;9.60;;;14.30;66.40;;;;;;4974035;28;20713;-80
2021/04/01 02:13:17;;;;;;;17.55;8.88;;;14.30;66.30;;;;;;4975793;28;20183;-79
2021/04/01 02:15:45;;;;;;;20.38;9.57;;;14.30;66.30;;;;;;4974520;28;20178;-78
2021/04/01 02:18:23;;;;;;;16.45;8.68;;;14.30;65.90;;;;;;4975239;28;20199;-78
2021/04/01 02:20:51;;;;;;;16.77;9.18;;;14.30;65.80;;;;;;4975615;28;20210;-79
2021/04/01 02:23:22;;;;;;;14.85;9.48;;;14.30;65.70;;;;;;4974197;28;20536;-79
2021/04/01 02:25:50;;;;;;;14.52;7.60;;;14.30;66.00;;;;;;4975185;28;20191;-79
2021/04/01 02:28:18;;;;;;;14.13;7.97;;;14.30;65.80;;;;;;4974599;28;20172;-79
2021/04/01 02:30:48;;;;;;;16.48;8.43;;;14.30;65.60;;;;;;4974771;28;20179;-79
2021/04/01 02:33:18;;;;;;;15.77;8.63;;;14.40;65.90;;;;;;4974551;28;20527;-79
2021/04/01 02:35:44;;;;;;;16.13;9.55;;;14.40;66.00;;;;;;4974625;28;20168;-78
2021/04/01 02:38:10;;;;;;;12.45;8.00;;;14.30;65.90;;;;;;4974440;28;20543;-79
2021/04/01 02:40:37;;;;;;;13.43;8.83;;;14.40;65.80;;;;;;4974735;28;20207;-79
2021/04/01 02:43:03;;;;;;;14.60;10.00;;;14.40;65.80;;;;;;4974405;28;20430;-79
2021/04/01 02:45:29;;;;;;;12.50;8.00;;;14.40;65.90;;;;;;4974675;28;20172;-77
2021/04/01 02:47:55;;;;;;;13.57;8.87;;;14.40;65.90;;;;;;4975273;28;20532;-79
2021/04/01 02:50:21;;;;;;;15.93;8.57;;;14.40;66.00;;;;;;4975051;28;20206;-79
2021/04/01 02:52:47;;;;;;;18.75;9.02;;;14.40;65.70;;;;;;4974263;28;20723;-78
2021/04/01 02:55:13;;;;;;;15.17;8.97;;;14.40;66.00;;;;;;4974331;28;20187;-79
2021/04/01 02:57:39;;;;;;;15.70;7.95;;;14.40;66.10;;;;;;4974123;28;20195;-78
2021/04/01 03:00:09;;;;;;;16.65;9.23;;;14.40;66.30;;;;;;4957039;28;20549;-78
2021/04/01 03:02:36;;;;;;;14.20;9.20;;;14.40;66.50;;;;;;4972887;28;20187;-79
2021/04/01 03:05:05;;;;;;;16.52;8.65;;;14.40;66.40;;;;;;4974293;28;20172;-77
2021/04/01 03:07:31;;;;;;;19.48;8.95;;;14.40;66.00;;;;;;4974185;28;20211;-78
2021/04/01 03:09:56;;;;;;;16.47;8.67;;;14.30;65.30;;;;;;4974136;28;20203;-78
2021/04/01 03:12:22;;;;;;;17.77;9.97;;;14.30;66.10;;;;;;4973776;28;20411;-78
2021/04/01 03:14:47;;;;;;;14.07;7.90;;;14.30;67.10;;;;;;4974188;28;20205;-77
2021/04/01 03:17:13;;;;;;;16.93;9.77;;;14.30;67.00;;;;;;4972456;28;20605;-77
2021/04/01 03:19:38;;;;;;;17.53;9.50;;;14.30;66.80;;;;;;4972342;28;20702;-79
2021/04/01 03:22:04;;;;;;;14.53;9.10;;;14.30;67.10;;;;;;4974356;28;20293;-78
2021/04/01 03:24:30;;;;;;;17.33;9.43;;;14.30;67.10;;;;;;4973135;28;20175;-79
2021/04/01 03:26:55;;;;;;;15.00;9.77;;;14.20;67.20;;;;;;4974335;28;20175;-78
2021/04/01 03:29:21;;;;;;;24.97;9.83;;;14.20;67.30;;;;;;4974771;28;20199;-81
2021/04/01 03:31:46;;;;;;;16.73;10.03;;;14.20;67.30;;;;;;4974529;28;20230;-79
2021/04/01 03:34:12;;;;;;;16.63;9.07;;;14.20;67.50;;;;;;4974086;28;20179;-78
2021/04/01 03:36:38;;;;;;;19.20;9.40;;;14.30;67.20;;;;;;4973761;28;20664;-79
2021/04/01 03:39:04;;;;;;;16.70;9.23;;;14.30;67.70;;;;;;4973407;28;20199;-78
2021/04/01 03:41:30;;;;;;;18.80;9.48;;;14.30;67.70;;;;;;4972510;28;20269;-79
2021/04/01 03:43:55;;;;;;;22.40;9.50;;;14.30;68.00;;;;;;4972540;28;20219;-79
2021/04/01 03:46:21;;;;;;;20.87;10.07;;;14.30;67.60;;;;;;4972306;28;20178;-77
2021/04/01 03:48:46;;;;;;;15.60;8.60;;;14.30;67.10;;;;;;4973970;28;20199;-79
2021/04/01 03:51:12;;;;;;;18.57;9.43;;;14.30;66.60;;;;;;4973777;28;20575;-79
2021/04/01 03:53:38;;;;;;;17.43;9.83;;;14.30;66.10;;;;;;4974310;28;20184;-79
2021/04/01 03:56:04;;;;;;;17.10;9.23;;;14.30;66.60;;;;;;4973729;28;20195;-80
2021/04/01 03:58:47;;;;;;;19.20;10.73;;;14.30;66.00;;;;;;4973335;28;20187;-79
2021/04/01 04:04:04;;;;;;;16.30;9.82;;;14.30;66.10;;;;;;4974591;28;20171;-80
2021/04/01 04:11:51;;;;;;;16.42;8.98;;;14.40;65.70;;;;;;4973246;28;20280;-80
2021/04/01 04:16:42;;;;;;;17.20;9.33;;;14.50;65.70;;;;;;4974006;28;20176;-78
2021/04/01 04:19:09;;;;;;;15.30;10.13;;;14.50;65.40;;;;;;4973799;28;20214;-80
2021/04/01 04:21:34;;;;;;;17.67;9.63;;;14.50;65.40;;;;;;4973394;28;20178;-78
2021/04/01 04:24:01;;;;;;;23.37;9.57;;;14.50;65.80;;;;;;4973577;28;20255;-79
2021/04/01 04:26:27;;;;;;;24.02;9.50;;;14.50;65.60;;;;;;4974608;28;20198;-78
2021/04/01 04:28:52;;;;;;;17.80;9.73;;;14.50;65.80;;;;;;4973307;28;20195;-79
2021/04/01 04:31:18;;;;;;;19.47;9.63;;;14.50;65.50;;;;;;4973309;28;20658;-77
2021/04/01 04:33:44;;;;;;;17.23;10.10;;;14.50;65.80;;;;;;4973222;28;20886;-78
2021/04/01 04:36:09;;;;;;;22.57;9.60;;;14.50;65.60;;;;;;4973604;28;20632;-78
2021/04/01 04:38:36;;;;;;;16.87;9.67;;;14.50;65.70;;;;;;4975726;28;20690;-79
2021/04/01 04:41:02;;;;;;;20.95;10.18;;;14.60;65.80;;;;;;4977465;28;20426;-79
2021/04/01 04:43:30;;;;;;;15.85;9.20;;;14.60;65.60;;;;;;4977126;28;20180;-78
2021/04/01 04:45:57;;;;;;;17.05;9.38;;;14.60;65.60;;;;;;4977292;28;20186;-79
2021/04/01 04:48:23;;;;;;;24.77;11.70;;;14.50;65.60;;;;;;4977099;28;20258;-76
2021/04/01 04:50:49;;;;;;;19.00;10.00;;;14.40;66.50;;;;;;4976920;28;20215;-77
2021/04/01 04:53:15;;;;;;;21.40;8.73;;;14.40;67.10;;;;;;4977183;28;20242;-78
2021/04/01 04:55:46;;;;;;;16.00;9.48;;;14.50;66.70;;;;;;4977163;28;20273;-78
2021/04/01 04:58:17;;;;;;;16.85;10.57;;;14.50;67.20;;;;;;4976817;28;20225;-79
2021/04/01 05:01:00;;;;;;;20.33;10.63;;;14.50;67.50;;;;;;4977540;28;20210;-78
2021/04/01 05:06:10;;;;;;;16.17;9.23;;;14.60;67.90;;;;;;4974371;28;20329;-78
2021/04/01 05:08:36;;;;;;;19.33;11.20;;;14.60;67.40;;;;;;4957233;28;20188;-78
2021/04/01 05:11:02;;;;;;;16.70;9.87;;;14.60;66.60;;;;;;4957168;29;20180;-78
2021/04/01 05:13:27;;;;;;;21.57;11.83;;;14.60;66.10;;;;;;4958350;29;20203;-79
2021/04/01 05:15:53;;;;;;;19.07;9.90;;;14.30;66.80;;;;;;4957536;28;20192;-77
2021/04/01 05:18:25;;;;;;;21.87;12.30;;;14.10;67.60;;;;;;4957488;28;20272;-77
2021/04/01 05:20:52;;;;;;;19.95;10.35;;;14.00;68.10;;;;;;4977394;28;20196;-78
2021/04/01 05:25:47;;;;;;;15.90;10.52;;;14.10;68.70;;;;;;4968128;28;20193;-78
2021/04/01 05:28:33;;;;;;;27.95;10.40;;;14.20;68.50;;;;;;4959004;28;20563;-80
2021/04/01 05:31:00;;;;;;;19.33;9.52;;;14.40;68.70;;;;;;4967802;28;20204;-79
2021/04/01 05:33:32;;;;;;;22.27;9.63;;;14.40;67.90;;;;;;4940659;29;20188;-78
2021/04/01 05:35:59;;;;;;;17.15;10.35;;;14.50;68.50;;;;;;4955844;29;20369;-79
2021/04/01 05:38:24;;;;;;;20.00;10.48;;;14.50;67.70;;;;;;4957499;28;20640;-78
2021/04/01 05:40:51;;;;;;;14.83;9.93;;;14.60;68.50;;;;;;4958260;29;20243;-79
2021/04/01 05:43:20;;;;;;;27.20;10.50;;;14.60;68.20;;;;;;4957239;29;20172;-78
2021/04/01 05:45:56;;;;;;;14.00;9.60;;;14.60;68.10;;;;;;4959346;28;20189;-79
2021/04/01 05:48:40;;;;;;;22.10;10.00;;;14.70;68.30;;;;;;4958597;28;20153;-80
2021/04/01 05:51:43;;;;;;;18.38;9.75;;;14.80;68.10;;;;;;4957953;28;20539;-79
2021/04/01 05:54:58;;;;;;;25.10;11.75;;;14.80;67.50;;;;;;4958792;28;20176;-81
2021/04/01 06:03:47;;;;;;;19.70;9.55;;;14.90;82.10;;;;;;4958581;29;20272;-80
2021/04/01 06:05:47;;;;;;;19.52;10.77;;;15.10;77.40;;;;;;4952829;29;20192;-78
2021/04/01 06:08:16;;;;;;;20.42;10.38;;;15.00;69.40;;;;;;4958768;28;20174;-79
2021/04/01 06:10:43;;;;;;;17.75;10.05;;;15.00;69.20;;;;;;4957680;28;20252;-79
2021/04/01 06:13:11;;;;;;;17.87;9.87;;;15.10;68.90;;;;;;4956897;29;20294;-79
2021/04/01 06:15:38;;;;;;;15.13;9.52;;;15.10;68.40;;;;;;4959753;28;20460;-78
2021/04/01 06:18:11;;;;;;;25.90;10.98;;;14.90;67.30;;;;;;4968247;28;20204;-81
2021/04/01 06:20:39;;;;;;;17.75;10.50;;;14.70;68.20;;;;;;4963842;28;20532;-83
2021/04/01 06:23:05;;;;;;;21.73;10.82;;;14.70;69.90;;;;;;4970395;28;20216;-83
2021/04/01 06:25:40;;;;;;;19.88;9.93;;;14.70;68.60;;;;;;4958479;28;20177;-83
2021/04/01 06:28:11;;;;;;;19.67;10.23;;;14.60;69.00;;;;;;4960010;28;20235;-83
2021/04/01 06:30:57;;;;;;;18.92;10.18;;;14.50;69.50;;;;;;4970464;28;20667;-81
2021/04/01 06:33:25;;;;;;;20.67;10.10;;;14.60;69.90;;;;;;4964627;28;20175;-82
2021/04/01 06:36:03;;;;;;;15.90;10.15;;;14.80;69.90;;;;;;4970082;28;20734;-84
2021/04/01 06:38:35;;;;;;;18.63;10.10;;;14.90;69.90;;;;;;4970746;28;20207;-82
2021/04/01 06:41:25;;;;;;;20.70;10.10;;;15.10;68.80;;;;;;4966329;28;20251;-84
2021/04/01 06:44:27;;;;;;;20.20;9.70;;;15.20;68.40;;;;;;4962314;28;20188;-83
2021/04/01 06:47:10;;;;;;;21.30;11.90;;;15.40;68.20;;;;;;4962652;28;20175;-82
2021/04/01 06:50:10;;;;;;;24.10;11.60;;;15.50;68.60;;;;;;4974914;28;20490;-82
2021/04/01 06:53:13;;;;;;;21.07;10.70;;;15.40;67.10;;;;;;4951682;28;20439;-83
2021/04/01 06:55:54;;;;;;;18.67;10.70;;;15.20;67.90;;;;;;4967351;28;20442;-83
2021/04/01 06:59:00;;;;;;;29.50;11.27;;;15.30;68.70;;;;;;4977162;28;20511;-82
2021/04/01 07:02:11;;;;;;;27.93;11.07;;;15.40;68.60;;;;;;4971269;28;20491;-83
2021/04/01 07:04:37;;;;;;;27.17;12.70;;;15.20;68.30;;;;;;4973765;28;20423;-83
2021/04/01 07:07:18;;;;;;;25.02;11.45;;;15.00;69.20;;;;;;4943625;29;20177;-82
2021/04/01 07:13:00;;;;;;;18.90;10.65;;;15.00;70.20;;;;;;4957381;28;20198;-82
2021/04/01 07:16:03;;;;;;;25.42;11.60;;;14.90;70.10;;;;;;4942094;29;20180;-80
2021/04/01 07:18:39;;;;;;;24.63;12.32;;;15.00;70.70;;;;;;4947034;28;20592;-82
2021/04/01 07:21:30;;;;;;;23.20;11.18;;;15.10;70.00;;;;;;4961204;28;20196;-82
2021/04/01 07:32:39;;;;;;;18.80;11.55;;;14.90;70.80;;;;;;4959280;29;20235;-82
2021/04/01 07:46:31;;;;;;;16.43;11.23;;;15.50;69.20;;;;;;4957865;29;20236;-81
2021/04/01 07:49:03;;;;;;;29.50;13.10;;;15.80;68.10;;;;;;4958424;28;20495;-82
2021/04/01 07:54:17;;;;;;;34.60;12.90;;;16.30;68.80;;;;;;4958083;29;20423;-82
2021/04/01 07:56:51;;;;;;;22.20;11.57;;;16.50;67.10;;;;;;4956634;29;20424;-83
2021/04/01 08:02:12;;;;;;;23.53;12.90;;;16.70;67.30;;;;;;4957260;29;20428;-82
2021/04/01 08:04:42;;;;;;;27.70;12.60;;;16.70;66.10;;;;;;4959131;28;20431;-82
2021/04/01 08:07:11;;;;;;;22.30;13.30;;;16.80;65.80;;;;;;4957432;29;20467;-82
2021/04/01 08:09:41;;;;;;;26.90;11.97;;;16.80;65.90;;;;;;4957759;29;20446;-82
2021/04/01 08:12:27;;;;;;;21.00;11.87;;;16.80;66.30;;;;;;4957905;28;20954;-81
2021/04/01 08:14:58;;;;;;;26.97;12.93;;;16.90;66.60;;;;;;4962411;28;20415;-81
2021/04/01 08:17:28;;;;;;;24.83;12.80;;;17.00;66.00;;;;;;4961436;29;20442;-82
2021/04/01 08:19:58;;;;;;;21.37;11.90;;;16.90;66.20;;;;;;4961185;29;20460;-81
2021/04/01 08:22:27;;;;;;;24.00;13.50;;;16.70;66.20;;;;;;4961592;28;20441;-81
2021/04/01 08:25:01;;;;;;;23.40;13.73;;;16.60;65.50;;;;;;4961133;28;20411;-82
2021/04/01 08:27:39;;;;;;;25.27;14.23;;;16.70;65.60;;;;;;4945257;29;20423;-81
2021/04/01 08:35:46;;;;;;;29.40;13.70;;;17.20;64.20;;;;;;4962389;28;20929;-81
2021/04/01 08:38:13;;;;;;;27.57;12.33;;;17.30;62.40;;;;;;4960756;29;20434;-82
2021/04/01 08:40:43;;;;;;;28.10;14.40;;;17.30;60.50;;;;;;4959802;29;20475;-83
2021/04/01 08:43:35;;;;;;;29.67;14.07;;;17.30;59.60;;;;;;4943584;29;20424;-81
2021/04/01 08:46:39;;;;;;;27.63;13.87;;;17.20;58.70;;;;;;4959244;29;20407;-82
2021/04/01 08:49:41;;;;;;;30.13;13.80;;;17.10;58.20;;;;;;4959993;29;20506;-81
2021/04/01 08:52:49;;;;;;;30.03;13.50;;;17.10;58.50;;;;;;4960043;29;20435;-81
2021/04/01 08:55:20;;;;;;;32.67;12.83;;;17.10;59.00;;;;;;4960724;28;20401;-81
2021/04/01 08:58:15;;;;;;;28.80;14.23;;;17.10;59.10;;;;;;4961305;29;20419;-81
2021/04/01 09:00:43;;;;;;;25.50;12.80;;;17.10;58.80;;;;;;4960286;29;20514;-82
2021/04/01 09:03:18;;;;;;;29.37;14.47;;;17.00;59.20;;;;;;4960430;29;20482;-81
2021/04/01 09:05:55;;;;;;;26.27;13.30;;;16.90;59.00;;;;;;4945511;29;20411;-82
2021/04/01 09:08:30;;;;;;;31.33;12.53;;;16.90;59.70;;;;;;4961069;28;20825;-81
2021/04/01 09:10:57;;;;;;;25.90;12.60;;;16.90;59.20;;;;;;4960293;29;20731;-82
2021/04/01 09:13:30;;;;;;;27.10;14.00;;;17.00;59.60;;;;;;4961877;28;20510;-81
2021/04/01 09:16:02;;;;;;;29.63;12.93;;;17.00;59.30;;;;;;4960448;29;20953;-82
2021/04/01 09:18:30;;;;;;;26.43;12.30;;;16.90;59.20;;;;;;4960362;29;20450;-82
2021/04/01 09:20:59;;;;;;;23.13;12.67;;;17.00;59.20;;;;;;4960252;29;20498;-81
2021/04/01 09:23:39;;;;;;;29.60;13.33;;;16.90;58.60;;;;;;4962098;28;20460;-82
2021/04/01 09:26:09;;;;;;;22.70;12.07;;;17.00;59.20;;;;;;4961634;28;20428;-82
2021/04/01 09:28:43;;;;;;;33.87;13.43;;;17.00;58.20;;;;;;4962214;28;20467;-82
2021/04/01 09:31:13;;;;;;;34.30;17.23;;;17.10;58.50;;;;;;4960343;29;20858;-82
2021/04/01 09:33:41;;;;;;;24.37;13.33;;;17.10;58.50;;;;;;4962693;28;20902;-81
2021/04/01 09:36:12;;;;;;;30.50;14.40;;;17.20;58.20;;;;;;4960701;29;20424;-81
2021/04/01 09:39:08;;;;;;;29.17;13.53;;;17.20;57.30;;;;;;4959632;29;20539;-82
2021/04/01 09:41:35;;;;;;;28.20;13.37;;;17.30;58.00;;;;;;4961752;28;20504;-81
2021/04/01 09:44:09;;;;;;;27.20;14.13;;;17.40;58.60;;;;;;4960955;29;20504;-82
2021/04/01 09:46:56;;;;;;;26.10;12.73;;;17.40;59.00;;;;;;4960689;29;20404;-81
2021/04/01 09:49:28;;;;;;;27.40;11.83;;;17.50;59.60;;;;;;4961762;28;20455;-80
2021/04/01 09:51:54;;;;;;;24.30;12.13;;;17.60;60.60;;;;;;4944337;29;20785;-81
2021/04/01 09:54:20;;;;;;;24.73;12.83;;;17.80;60.80;;;;;;4961355;28;20495;-82
2021/04/01 09:56:56;;;;;;;22.33;11.23;;;18.00;60.90;;;;;;4960768;29;20453;-83
2021/04/01 10:02:30;;;;;;;32.63;13.27;;;18.00;59.50;;;;;;4963473;29;20426;-82
2021/04/01 10:05:03;;;;;;;27.70;13.53;;;18.00;59.50;;;;;;4966476;28;20791;-81
2021/04/01 10:07:36;;;;;;;24.53;12.57;;;18.10;59.70;;;;;;4963100;28;20445;-82
2021/04/01 10:10:08;;;;;;;32.43;14.37;;;18.10;59.10;;;;;;4960387;29;20441;-82
2021/04/01 10:12:38;;;;;;;31.43;13.93;;;18.00;58.80;;;;;;4944560;29;21037;-81
2021/04/01 10:15:10;;;;;;;31.23;15.87;;;18.00;59.10;;;;;;4961022;28;20432;-82
2021/04/01 10:17:37;;;;;;;30.27;14.67;;;18.10;59.70;;;;;;4943861;29;20957;-82
2021/04/01 10:20:06;;;;;;;33.03;14.53;;;18.10;59.90;;;;;;4960204;28;20464;-81
2021/04/01 10:22:39;;;;;;;29.37;13.00;;;18.00;59.40;;;;;;4958485;29;20427;-82
2021/04/01 10:25:24;;;;;;;30.50;13.93;;;18.00;60.00;;;;;;4959868;29;20446;-82
2021/04/01 10:28:03;;;;;;;27.57;12.57;;;17.90;59.20;;;;;;4960190;29;20481;-82
2021/04/01 10:30:34;;;;;;;30.37;13.70;;;17.70;59.40;;;;;;4945037;29;20445;-82
2021/04/01 10:33:19;;;;;;;27.60;13.30;;;17.60;59.90;;;;;;4961932;28;20445;-81
2021/04/01 10:35:50;;;;;;;24.13;12.60;;;17.60;60.00;;;;;;4960572;28;20405;-82
2021/04/01 10:38:18;;;;;;;27.63;13.53;;;17.80;60.50;;;;;;4944079;29;20433;-82
2021/04/01 10:40:51;;;;;;;28.87;13.30;;;17.90;60.40;;;;;;4960085;28;20608;-82
2021/04/01 10:43:19;;;;;;;30.00;14.80;;;17.90;60.20;;;;;;4960334;28;20407;-82
2021/04/01 10:45:46;;;;;;;30.70;13.80;;;18.00;61.60;;;;;;4960722;29;20415;-82
2021/04/01 10:48:33;;;;;;;27.47;14.37;;;18.00;61.20;;;;;;4942946;29;20473;-82
2021/04/01 10:51:07;;;;;;;28.97;14.07;;;17.90;61.70;;;;;;4959983;28;21059;-82
2021/04/01 10:53:40;;;;;;;30.50;12.80;;;17.70;62.20;;;;;;4960670;29;20425;-81
2021/04/01 10:56:12;;;;;;;29.53;14.27;;;17.70;62.30;;;;;;4960027;28;20412;-81
2021/04/01 10:58:49;;;;;;;31.33;15.90;;;17.70;62.50;;;;;;4943279;29;20448;-81
2021/04/01 11:01:33;;;;;;;32.00;14.87;;;17.60;61.90;;;;;;4959336;29;20442;-83
2021/04/01 11:04:02;;;;;;;35.37;16.37;;;17.60;62.30;;;;;;4961933;28;20779;-82
2021/04/01 11:06:28;;;;;;;32.67;15.00;;;17.60;60.40;;;;;;4962761;28;20495;-81
2021/04/01 11:09:02;;;;;;;33.63;15.13;;;17.70;60.00;;;;;;4960296;29;20447;-83
2021/04/01 11:11:55;;;;;;;30.23;14.20;;;17.60;59.70;;;;;;4959511;29;20398;-82
2021/04/01 11:14:24;;;;;;;30.00;13.60;;;17.50;60.50;;;;;;4958995;28;20416;-81
2021/04/01 11:16:52;;;;;;;30.37;13.47;;;17.60;60.60;;;;;;4957242;29;20426;-82
2021/04/01 11:19:18;;;;;;;32.57;15.00;;;17.60;61.40;;;;;;4957518;29;20492;-82
2021/04/01 11:21:47;;;;;;;33.87;14.40;;;17.60;62.70;;;;;;4956817;29;20420;-82
2021/04/01 11:24:28;;;;;;;35.73;19.10;;;17.60;64.60;;;;;;4941312;29;20978;-83
2021/04/01 11:26:55;;;;;;;29.53;13.60;;;17.70;64.50;;;;;;4960323;29;20509;-82
2021/04/01 11:29:29;;;;;;;37.30;14.80;;;17.80;64.30;;;;;;4945299;29;20436;-81
2021/04/01 11:31:56;;;;;;;30.97;14.93;;;17.50;61.10;;;;;;4964295;28;20970;-81
2021/04/01 11:34:22;;;;;;;29.53;14.43;;;17.50;61.80;;;;;;4960332;29;20468;-80
2021/04/01 11:36:52;;;;;;;31.33;14.70;;;17.50;60.80;;;;;;4942116;29;20431;-82
2021/04/01 11:39:36;;;;;;;28.70;13.57;;;17.60;60.10;;;;;;4942783;29;20465;-81
2021/04/01 11:42:02;;;;;;;34.23;13.77;;;17.70;60.60;;;;;;4959043;29;20429;-82
2021/04/01 11:44:28;;;;;;;29.90;12.67;;;17.70;59.50;;;;;;4958085;29;20527;-80
2021/04/01 11:46:53;;;;;;;29.97;14.57;;;17.80;60.00;;;;;;4959126;28;20178;-82
2021/04/01 11:49:19;;;;;;;34.77;14.83;;;17.70;61.20;;;;;;4959245;29;20665;-82
2021/04/01 11:51:48;;;;;;;30.00;14.70;;;17.60;61.90;;;;;;4957603;29;20210;-81
2021/04/01 11:54:22;;;;;;;34.10;14.00;;;17.70;62.10;;;;;;4958664;28;20169;-80
2021/04/01 11:56:49;;;;;;;31.77;13.97;;;17.80;61.20;;;;;;4958660;28;20420;-81
2021/04/01 11:59:20;;;;;;;36.00;15.20;;;17.80;61.20;;;;;;4960287;29;20461;-80
2021/04/01 12:02:00;;;;;;;34.43;15.20;;;17.90;63.30;;;;;;4947720;29;20538;-80
2021/04/01 12:04:31;;;;;;;36.27;15.57;;;17.90;63.20;;;;;;4962487;29;20450;-80
2021/04/01 12:06:58;;;;;;;38.57;18.30;;;18.00;63.80;;;;;;4962789;29;20480;-80
2021/04/01 12:09:25;;;;;;;30.73;14.60;;;17.90;60.70;;;;;;4963089;29;20939;-81
2021/04/01 12:11:54;;;;;;;36.50;15.97;;;17.90;59.70;;;;;;4965696;28;20417;-80
2021/04/01 12:14:36;;;;;;;40.03;15.63;;;17.80;59.70;;;;;;4967885;29;20421;-80
2021/04/01 12:17:06;;;;;;;30.13;13.60;;;17.80;59.70;;;;;;4970360;28;20172;-81
2021/04/01 12:19:33;;;;;;;31.73;14.30;;;17.80;59.40;;;;;;4969792;29;20531;-80
2021/04/01 12:22:09;;;;;;;28.07;12.80;;;17.90;59.70;;;;;;4970126;29;20425;-80
2021/04/01 12:24:39;;;;;;;29.07;13.80;;;18.00;60.30;;;;;;4969746;29;20425;-81
2021/04/01 12:27:07;;;;;;;35.30;14.27;;;18.00;59.60;;;;;;4970626;29;20435;-81
2021/04/01 12:29:48;;;;;;;27.83;13.87;;;17.90;59.50;;;;;;4968832;29;20922;-80
2021/04/01 12:32:25;;;;;;;52.23;26.63;;;17.90;59.80;;;;;;4952664;29;20503;-81
2021/04/01 12:34:50;;;;;;;31.27;13.17;;;17.80;59.70;;;;;;4950914;29;20424;-84
2021/04/01 12:37:16;;;;;;;32.67;13.77;;;17.80;59.80;;;;;;4965388;29;20417;-81
2021/04/01 12:39:42;;;;;;;28.57;13.90;;;17.70;59.40;;;;;;4967854;28;20640;-80
2021/04/01 12:42:08;;;;;;;34.97;12.80;;;17.60;59.60;;;;;;4967106;29;20412;-80
2021/04/01 12:44:43;;;;;;;25.53;13.63;;;17.70;59.60;;;;;;4967685;29;20193;-81
2021/04/01 12:47:09;;;;;;;28.40;12.70;;;17.90;59.60;;;;;;4967804;29;20177;-80
2021/04/01 12:49:36;;;;;;;27.37;12.37;;;17.90;59.10;;;;;;4967575;29;20450;-81
2021/04/01 12:52:04;;;;;;;31.77;13.33;;;18.10;58.40;;;;;;4969183;28;20417;-82
2021/04/01 12:54:38;;;;;;;27.13;13.80;;;18.30;57.60;;;;;;4966365;29;20489;-81
2021/04/01 12:57:08;;;;;;;29.27;14.00;;;18.30;56.40;;;;;;4966543;28;20470;-81
2021/04/01 12:59:38;;;;;;;42.10;13.80;;;18.40;56.00;;;;;;4969146;28;20475;-82
2021/04/01 13:02:17;;;;;;;28.80;12.90;;;18.50;56.00;;;;;;4972248;28;20493;-81
2021/04/01 13:04:50;;;;;;;26.70;13.00;;;18.40;55.70;;;;;;4972073;28;20437;-80
2021/04/01 13:12:26;;;;;;;28.43;14.80;;;17.90;59.20;;;;;;4970731;29;20200;-81
2021/04/01 13:14:51;;;;;;;27.97;15.43;;;17.80;61.10;;;;;;4970504;29;20493;-80
2021/04/01 13:17:18;;;;;;;31.10;14.60;;;17.60;62.70;;;;;;4969570;29;20186;-81
2021/04/01 13:19:45;;;;;;;31.80;14.97;;;17.60;63.80;;;;;;4973242;28;20208;-81
2021/04/01 13:27:12;;;;;;;32.80;17.20;;;17.80;65.20;;;;;;4973351;28;20168;-83
2021/04/01 13:29:40;;;;;;;30.70;16.70;;;17.90;66.00;;;;;;4974345;28;20466;-81
2021/04/01 13:32:29;;;;;;;36.83;16.40;;;18.00;65.80;;;;;;4972487;28;20423;-81
2021/04/01 13:35:20;;;;;;;32.07;14.70;;;17.90;66.00;;;;;;4971839;29;20424;-81
2021/04/01 13:40:13;;;;;;;36.30;17.50;;;18.00;65.40;;;;;;4971354;29;20478;-81
2021/04/01 13:42:42;;;;;;;29.07;13.77;;;17.90;63.60;;;;;;4972961;29;20205;-80
2021/04/01 13:45:17;;;;;;;29.60;14.87;;;17.90;62.70;;;;;;4973203;28;20455;-81
2021/04/01 13:47:45;;;;;;;35.10;16.70;;;17.90;62.00;;;;;;4971778;29;20432;-81
2021/04/01 13:50:15;;;;;;;34.73;15.90;;;17.90;58.30;;;;;;4956656;29;20444;-81
2021/04/01 13:53:08;;;;;;;41.30;17.80;;;17.70;57.40;;;;;;4971821;29;20478;-81
2021/04/01 13:55:39;;;;;;;36.80;17.57;;;17.80;57.20;;;;;;4970566;29;20427;-81
2021/04/01 14:03:56;;;;;;;37.90;16.80;;;17.60;66.30;;;;;;4969525;29;20420;-81
2021/04/01 14:09:34;;;;;;;35.43;18.47;;;17.60;69.20;;;;;;4970600;29;20439;-81